sensor_id;sensor_type;location;lat;lon;timestamp;temperature;humidity
41294;DHT22;27037;52.010;4.446;2023-11-21T00:00:16;8.40;99.90
41294;DHT22;27037;52.010;4.446;2023-11-21T00:02:43;8.40;99.90
41294;DHT22;27037;52.010;4.446;2023-11-21T00:05:09;8.40;99.90
41294;DHT22;27037;52.010;4.446;2023-11-21T00:07:38;8.40;99.90
41294;DHT22;27037;52.010;4.446;2023-11-21T00:10:04;8.40;99.90
41294;DHT22;27037;52.010;4.446;2023-11-21T00:12:31;8.50;99.90
41294;DHT22;27037;52.010;4.446;2023-11-21T00:14:57;8.40;99.90
41294;DHT22;27037;52.010;4.446;2023-11-21T00:17:23;8.50;99.90
41294;DHT22;27037;52.010;4.446;2023-11-21T00:19:48;8.50;99.90
41294;DHT22;27037;52.010;4.446;2023-11-21T00:22:14;8.50;99.90
41294;DHT22;27037;52.010;4.446;2023-11-21T00:24:41;8.50;99.90
41294;DHT22;27037;52.010;4.446;2023-11-21T00:27:06;8.60;99.90
41294;DHT22;27037;52.010;4.446;2023-11-21T00:29:32;8.60;99.90
41294;DHT22;27037;52.010;4.446;2023-11-21T00:31:58;8.60;99.90
41294;DHT22;27037;52.010;4.446;2023-11-21T00:34:23;8.60;99.90
41294;DHT22;27037;52.010;4.446;2023-11-21T00:36:49;8.60;99.90
41294;DHT22;27037;52.010;4.446;2023-11-21T00:39:15;8.70;99.90
41294;DHT22;27037;52.010;4.446;2023-11-21T00:41:41;8.70;99.90
41294;DHT22;27037;52.010;4.446;2023-11-21T00:44:07;8.70;99.90
41294;DHT22;27037;52.010;4.446;2023-11-21T00:46:33;8.80;99.90
41294;DHT22;27037;52.010;4.446;2023-11-21T00:48:58;8.80;99.90
41294;DHT22;27037;52.010;4.446;2023-11-21T00:51:24;8.80;99.90
41294;DHT22;27037;52.010;4.446;2023-11-21T00:53:50;8.80;99.90
41294;DHT22;27037;52.010;4.446;2023-11-21T00:56:15;8.80;99.90
41294;DHT22;27037;52.010;4.446;2023-11-21T00:58:41;8.90;99.90
41294;DHT22;27037;52.010;4.446;2023-11-21T01:01:12;8.90;99.90
41294;DHT22;27037;52.010;4.446;2023-11-21T01:03:37;8.90;99.90
41294;DHT22;27037;52.010;4.446;2023-11-21T01:06:03;9.00;99.90
41294;DHT22;27037;52.010;4.446;2023-11-21T01:08:32;9.00;99.90
41294;DHT22;27037;52.010;4.446;2023-11-21T01:10:58;9.00;99.90
41294;DHT22;27037;52.010;4.446;2023-11-21T01:13:23;9.10;99.90
41294;DHT22;27037;52.010;4.446;2023-11-21T01:15:52;9.10;99.90
41294;DHT22;27037;52.010;4.446;2023-11-21T01:18:18;9.10;99.90
41294;DHT22;27037;52.010;4.446;2023-11-21T01:20:44;9.10;99.90
41294;DHT22;27037;52.010;4.446;2023-11-21T01:23:12;9.10;99.90
41294;DHT22;27037;52.010;4.446;2023-11-21T01:25:38;9.20;99.90
41294;DHT22;27037;52.010;4.446;2023-11-21T01:28:03;9.20;99.90
41294;DHT22;27037;52.010;4.446;2023-11-21T01:30:29;9.20;99.90
41294;DHT22;27037;52.010;4.446;2023-11-21T01:32:54;9.20;99.90
41294;DHT22;27037;52.010;4.446;2023-11-21T01:35:20;9.20;99.90
41294;DHT22;27037;52.010;4.446;2023-11-21T01:37:46;9.20;99.90
41294;DHT22;27037;52.010;4.446;2023-11-21T01:40:13;9.30;99.90
41294;DHT22;27037;52.010;4.446;2023-11-21T01:42:40;9.20;99.90
41294;DHT22;27037;52.010;4.446;2023-11-21T01:45:06;9.30;99.90
41294;DHT22;27037;52.010;4.446;2023-11-21T01:47:35;9.30;99.90
41294;DHT22;27037;52.010;4.446;2023-11-21T01:50:02;9.30;99.90
41294;DHT22;27037;52.010;4.446;2023-11-21T01:52:30;9.30;99.90
41294;DHT22;27037;52.010;4.446;2023-11-21T01:54:56;9.30;99.90
41294;DHT22;27037;52.010;4.446;2023-11-21T01:57:23;9.30;99.90
41294;DHT22;27037;52.010;4.446;2023-11-21T01:59:49;9.40;99.90
41294;DHT22;27037;52.010;4.446;2023-11-21T02:02:15;9.40;99.90
41294;DHT22;27037;52.010;4.446;2023-11-21T02:04:42;9.40;99.90
41294;DHT22;27037;52.010;4.446;2023-11-21T02:07:07;9.40;99.90
41294;DHT22;27037;52.010;4.446;2023-11-21T02:09:33;9.40;99.90
41294;DHT22;27037;52.010;4.446;2023-11-21T02:12:00;9.40;99.90
41294;DHT22;27037;52.010;4.446;2023-11-21T02:14:26;9.40;99.90
41294;DHT22;27037;52.010;4.446;2023-11-21T02:16:53;9.40;99.90
41294;DHT22;27037;52.010;4.446;2023-11-21T02:19:20;9.50;99.90
41294;DHT22;27037;52.010;4.446;2023-11-21T02:21:54;9.50;99.90
41294;DHT22;27037;52.010;4.446;2023-11-21T02:24:21;9.50;99.90
41294;DHT22;27037;52.010;4.446;2023-11-21T02:26:47;9.50;99.90
41294;DHT22;27037;52.010;4.446;2023-11-21T02:29:13;9.50;99.90
41294;DHT22;27037;52.010;4.446;2023-11-21T02:31:39;9.50;99.90
41294;DHT22;27037;52.010;4.446;2023-11-21T02:34:16;9.50;99.90
41294;DHT22;27037;52.010;4.446;2023-11-21T02:36:45;9.60;99.90
41294;DHT22;27037;52.010;4.446;2023-11-21T02:39:11;9.60;99.90
41294;DHT22;27037;52.010;4.446;2023-11-21T02:41:40;9.50;99.90
41294;DHT22;27037;52.010;4.446;2023-11-21T02:44:06;9.50;99.90
41294;DHT22;27037;52.010;4.446;2023-11-21T02:46:33;9.50;99.90
41294;DHT22;27037;52.010;4.446;2023-11-21T02:49:00;9.50;99.90
41294;DHT22;27037;52.010;4.446;2023-11-21T02:51:26;9.50;99.90
41294;DHT22;27037;52.010;4.446;2023-11-21T02:53:51;9.50;99.90
41294;DHT22;27037;52.010;4.446;2023-11-21T02:56:17;9.50;99.90
41294;DHT22;27037;52.010;4.446;2023-11-21T02:58:43;9.50;99.90
41294;DHT22;27037;52.010;4.446;2023-11-21T03:01:09;9.50;99.90
41294;DHT22;27037;52.010;4.446;2023-11-21T03:03:36;9.60;99.90
41294;DHT22;27037;52.010;4.446;2023-11-21T03:06:04;9.60;99.90
41294;DHT22;27037;52.010;4.446;2023-11-21T03:08:30;9.60;99.90
41294;DHT22;27037;52.010;4.446;2023-11-21T03:10:55;9.60;99.90
41294;DHT22;27037;52.010;4.446;2023-11-21T03:13:21;9.60;99.90
41294;DHT22;27037;52.010;4.446;2023-11-21T03:15:47;9.60;99.90
41294;DHT22;27037;52.010;4.446;2023-11-21T03:18:13;9.60;99.90
41294;DHT22;27037;52.010;4.446;2023-11-21T03:20:38;9.60;99.90
41294;DHT22;27037;52.010;4.446;2023-11-21T03:23:04;9.70;99.90
41294;DHT22;27037;52.010;4.446;2023-11-21T03:25:30;9.70;99.90
41294;DHT22;27037;52.010;4.446;2023-11-21T03:27:56;9.70;99.90
41294;DHT22;27037;52.010;4.446;2023-11-21T03:30:22;9.70;99.90
41294;DHT22;27037;52.010;4.446;2023-11-21T03:32:47;9.70;99.90
41294;DHT22;27037;52.010;4.446;2023-11-21T03:35:13;9.70;99.90
41294;DHT22;27037;52.010;4.446;2023-11-21T03:37:38;9.70;99.90
41294;DHT22;27037;52.010;4.446;2023-11-21T03:40:07;9.70;99.90
41294;DHT22;27037;52.010;4.446;2023-11-21T03:42:34;9.70;99.90
41294;DHT22;27037;52.010;4.446;2023-11-21T03:45:00;9.80;99.90
41294;DHT22;27037;52.010;4.446;2023-11-21T03:47:27;9.80;99.90
41294;DHT22;27037;52.010;4.446;2023-11-21T03:49:53;9.80;99.90
41294;DHT22;27037;52.010;4.446;2023-11-21T03:52:18;9.80;99.90
41294;DHT22;27037;52.010;4.446;2023-11-21T03:54:44;9.80;99.90
41294;DHT22;27037;52.010;4.446;2023-11-21T03:57:10;9.80;99.90
41294;DHT22;27037;52.010;4.446;2023-11-21T03:59:35;9.80;99.90
41294;DHT22;27037;52.010;4.446;2023-11-21T04:02:01;9.80;99.90
41294;DHT22;27037;52.010;4.446;2023-11-21T04:04:26;9.80;99.90
41294;DHT22;27037;52.010;4.446;2023-11-21T04:06:52;9.90;99.90
41294;DHT22;27037;52.010;4.446;2023-11-21T04:09:18;9.90;99.90
41294;DHT22;27037;52.010;4.446;2023-11-21T04:11:43;9.90;99.90
41294;DHT22;27037;52.010;4.446;2023-11-21T04:14:11;9.90;99.90
41294;DHT22;27037;52.010;4.446;2023-11-21T04:16:36;9.90;99.90
41294;DHT22;27037;52.010;4.446;2023-11-21T04:19:02;9.90;99.90
41294;DHT22;27037;52.010;4.446;2023-11-21T04:21:27;9.90;99.90
41294;DHT22;27037;52.010;4.446;2023-11-21T04:23:53;9.90;99.90
41294;DHT22;27037;52.010;4.446;2023-11-21T04:26:18;9.90;99.90
41294;DHT22;27037;52.010;4.446;2023-11-21T04:28:44;9.90;99.90
41294;DHT22;27037;52.010;4.446;2023-11-21T04:31:10;9.90;99.90
41294;DHT22;27037;52.010;4.446;2023-11-21T04:33:35;9.90;99.90
41294;DHT22;27037;52.010;4.446;2023-11-21T04:36:01;9.90;99.90
41294;DHT22;27037;52.010;4.446;2023-11-21T04:38:27;10.00;99.90
41294;DHT22;27037;52.010;4.446;2023-11-21T04:40:53;10.00;99.90
41294;DHT22;27037;52.010;4.446;2023-11-21T04:43:18;10.00;99.90
41294;DHT22;27037;52.010;4.446;2023-11-21T04:45:44;10.00;99.90
41294;DHT22;27037;52.010;4.446;2023-11-21T04:48:09;10.00;99.90
41294;DHT22;27037;52.010;4.446;2023-11-21T04:50:35;10.00;99.90
41294;DHT22;27037;52.010;4.446;2023-11-21T04:53:01;10.00;99.90
41294;DHT22;27037;52.010;4.446;2023-11-21T04:55:26;10.00;99.90
41294;DHT22;27037;52.010;4.446;2023-11-21T04:57:53;10.10;99.90
41294;DHT22;27037;52.010;4.446;2023-11-21T05:00:19;10.10;99.90
41294;DHT22;27037;52.010;4.446;2023-11-21T05:02:46;10.10;99.90
41294;DHT22;27037;52.010;4.446;2023-11-21T05:05:12;10.10;99.90
41294;DHT22;27037;52.010;4.446;2023-11-21T05:07:39;10.10;99.90
41294;DHT22;27037;52.010;4.446;2023-11-21T05:10:06;10.10;99.90
41294;DHT22;27037;52.010;4.446;2023-11-21T05:12:37;10.10;99.90
41294;DHT22;27037;52.010;4.446;2023-11-21T05:15:07;10.00;99.90
41294;DHT22;27037;52.010;4.446;2023-11-21T05:17:35;10.00;99.90
41294;DHT22;27037;52.010;4.446;2023-11-21T05:20:01;10.00;99.90
41294;DHT22;27037;52.010;4.446;2023-11-21T05:22:29;9.90;99.90
41294;DHT22;27037;52.010;4.446;2023-11-21T05:24:55;9.90;99.90
41294;DHT22;27037;52.010;4.446;2023-11-21T05:27:21;9.90;99.90
41294;DHT22;27037;52.010;4.446;2023-11-21T05:29:46;9.80;99.90
41294;DHT22;27037;52.010;4.446;2023-11-21T05:32:12;9.80;99.90
41294;DHT22;27037;52.010;4.446;2023-11-21T05:34:37;9.70;99.90
41294;DHT22;27037;52.010;4.446;2023-11-21T05:37:03;9.70;99.90
41294;DHT22;27037;52.010;4.446;2023-11-21T05:39:30;9.70;99.90
41294;DHT22;27037;52.010;4.446;2023-11-21T05:41:56;9.70;99.90
41294;DHT22;27037;52.010;4.446;2023-11-21T05:44:23;9.60;99.90
41294;DHT22;27037;52.010;4.446;2023-11-21T05:46:49;9.60;99.90
41294;DHT22;27037;52.010;4.446;2023-11-21T05:49:15;9.60;99.90
41294;DHT22;27037;52.010;4.446;2023-11-21T05:51:41;9.60;99.90
41294;DHT22;27037;52.010;4.446;2023-11-21T05:54:07;9.60;99.90
41294;DHT22;27037;52.010;4.446;2023-11-21T05:56:33;9.60;99.90
41294;DHT22;27037;52.010;4.446;2023-11-21T05:58:59;9.70;99.90
41294;DHT22;27037;52.010;4.446;2023-11-21T06:01:25;9.70;99.90
41294;DHT22;27037;52.010;4.446;2023-11-21T06:03:54;9.70;99.90
41294;DHT22;27037;52.010;4.446;2023-11-21T06:06:20;9.80;99.90
41294;DHT22;27037;52.010;4.446;2023-11-21T06:08:50;9.80;99.90
41294;DHT22;27037;52.010;4.446;2023-11-21T06:11:16;9.90;99.90
41294;DHT22;27037;52.010;4.446;2023-11-21T06:13:41;9.90;99.90
41294;DHT22;27037;52.010;4.446;2023-11-21T06:16:08;9.90;99.90
41294;DHT22;27037;52.010;4.446;2023-11-21T06:18:33;9.90;99.90
41294;DHT22;27037;52.010;4.446;2023-11-21T06:21:00;9.90;99.90
41294;DHT22;27037;52.010;4.446;2023-11-21T06:23:26;10.00;99.90
41294;DHT22;27037;52.010;4.446;2023-11-21T06:25:52;10.00;99.90
41294;DHT22;27037;52.010;4.446;2023-11-21T06:28:18;10.00;99.90
41294;DHT22;27037;52.010;4.446;2023-11-21T06:30:43;10.00;99.90
41294;DHT22;27037;52.010;4.446;2023-11-21T06:33:10;10.00;99.90
41294;DHT22;27037;52.010;4.446;2023-11-21T06:35:36;10.00;99.90
41294;DHT22;27037;52.010;4.446;2023-11-21T06:38:02;10.00;99.90
41294;DHT22;27037;52.010;4.446;2023-11-21T06:40:28;9.90;99.90
41294;DHT22;27037;52.010;4.446;2023-11-21T06:42:54;10.00;99.90
41294;DHT22;27037;52.010;4.446;2023-11-21T06:45:19;9.90;99.90
41294;DHT22;27037;52.010;4.446;2023-11-21T06:47:45;9.90;99.90
41294;DHT22;27037;52.010;4.446;2023-11-21T06:50:11;9.80;99.90
41294;DHT22;27037;52.010;4.446;2023-11-21T06:52:37;9.70;99.90
41294;DHT22;27037;52.010;4.446;2023-11-21T06:55:02;9.70;99.90
41294;DHT22;27037;52.010;4.446;2023-11-21T06:57:28;9.60;99.90
41294;DHT22;27037;52.010;4.446;2023-11-21T06:59:54;9.60;99.90
41294;DHT22;27037;52.010;4.446;2023-11-21T07:02:22;9.50;99.90
41294;DHT22;27037;52.010;4.446;2023-11-21T07:04:48;9.50;99.90
41294;DHT22;27037;52.010;4.446;2023-11-21T07:07:13;9.60;99.90
41294;DHT22;27037;52.010;4.446;2023-11-21T07:09:39;9.60;99.90
41294;DHT22;27037;52.010;4.446;2023-11-21T07:12:05;9.60;99.90
41294;DHT22;27037;52.010;4.446;2023-11-21T07:14:33;9.60;99.90
41294;DHT22;27037;52.010;4.446;2023-11-21T07:16:59;9.60;99.90
41294;DHT22;27037;52.010;4.446;2023-11-21T07:19:24;9.70;99.90
41294;DHT22;27037;52.010;4.446;2023-11-21T07:21:50;9.80;99.90
41294;DHT22;27037;52.010;4.446;2023-11-21T07:24:16;9.80;99.90
41294;DHT22;27037;52.010;4.446;2023-11-21T07:26:42;9.80;99.90
41294;DHT22;27037;52.010;4.446;2023-11-21T07:29:08;9.90;99.90
41294;DHT22;27037;52.010;4.446;2023-11-21T07:31:34;9.90;99.90
41294;DHT22;27037;52.010;4.446;2023-11-21T07:34:03;10.00;99.90
41294;DHT22;27037;52.010;4.446;2023-11-21T07:36:29;10.00;99.90
41294;DHT22;27037;52.010;4.446;2023-11-21T07:38:54;10.10;99.90
41294;DHT22;27037;52.010;4.446;2023-11-21T07:41:20;10.10;99.90
41294;DHT22;27037;52.010;4.446;2023-11-21T07:43:46;10.10;99.90
41294;DHT22;27037;52.010;4.446;2023-11-21T07:46:12;10.20;99.90
41294;DHT22;27037;52.010;4.446;2023-11-21T07:48:39;10.20;99.90
41294;DHT22;27037;52.010;4.446;2023-11-21T07:51:05;10.20;99.90
41294;DHT22;27037;52.010;4.446;2023-11-21T07:53:32;10.20;99.90
41294;DHT22;27037;52.010;4.446;2023-11-21T07:56:02;10.20;99.90
41294;DHT22;27037;52.010;4.446;2023-11-21T07:58:28;10.20;99.90
41294;DHT22;27037;52.010;4.446;2023-11-21T08:00:54;10.30;99.90
41294;DHT22;27037;52.010;4.446;2023-11-21T08:03:19;10.30;99.90
41294;DHT22;27037;52.010;4.446;2023-11-21T08:05:45;10.30;99.90
41294;DHT22;27037;52.010;4.446;2023-11-21T08:08:10;10.30;99.90
41294;DHT22;27037;52.010;4.446;2023-11-21T08:10:36;10.40;99.90
41294;DHT22;27037;52.010;4.446;2023-11-21T08:13:03;10.40;99.90
41294;DHT22;27037;52.010;4.446;2023-11-21T08:15:29;10.40;99.90
41294;DHT22;27037;52.010;4.446;2023-11-21T08:17:57;10.50;99.90
41294;DHT22;27037;52.010;4.446;2023-11-21T08:20:24;10.50;99.90
41294;DHT22;27037;52.010;4.446;2023-11-21T08:22:50;10.50;99.90
41294;DHT22;27037;52.010;4.446;2023-11-21T08:25:17;10.50;99.90
41294;DHT22;27037;52.010;4.446;2023-11-21T08:27:45;10.50;99.90
41294;DHT22;27037;52.010;4.446;2023-11-21T08:30:11;10.60;99.90
41294;DHT22;27037;52.010;4.446;2023-11-21T08:32:39;10.60;99.90
41294;DHT22;27037;52.010;4.446;2023-11-21T08:35:05;10.60;99.90
41294;DHT22;27037;52.010;4.446;2023-11-21T08:37:31;10.60;99.90
41294;DHT22;27037;52.010;4.446;2023-11-21T08:39:58;10.70;99.90
41294;DHT22;27037;52.010;4.446;2023-11-21T08:42:27;10.70;99.90
41294;DHT22;27037;52.010;4.446;2023-11-21T08:44:58;10.70;99.90
41294;DHT22;27037;52.010;4.446;2023-11-21T08:47:23;10.70;99.90
41294;DHT22;27037;52.010;4.446;2023-11-21T08:49:52;10.70;99.90
41294;DHT22;27037;52.010;4.446;2023-11-21T08:52:20;10.80;99.90
41294;DHT22;27037;52.010;4.446;2023-11-21T08:54:48;10.80;99.90
41294;DHT22;27037;52.010;4.446;2023-11-21T08:57:14;10.80;99.90
41294;DHT22;27037;52.010;4.446;2023-11-21T08:59:39;10.80;99.90
41294;DHT22;27037;52.010;4.446;2023-11-21T09:02:05;10.80;99.90
41294;DHT22;27037;52.010;4.446;2023-11-21T09:04:31;10.90;99.90
41294;DHT22;27037;52.010;4.446;2023-11-21T09:06:57;10.90;99.90
41294;DHT22;27037;52.010;4.446;2023-11-21T09:09:25;10.90;99.90
41294;DHT22;27037;52.010;4.446;2023-11-21T09:11:50;10.90;99.90
41294;DHT22;27037;52.010;4.446;2023-11-21T09:14:16;10.90;99.90
41294;DHT22;27037;52.010;4.446;2023-11-21T09:16:44;10.90;99.90
41294;DHT22;27037;52.010;4.446;2023-11-21T09:19:10;10.90;99.90
41294;DHT22;27037;52.010;4.446;2023-11-21T09:21:35;10.90;99.90
41294;DHT22;27037;52.010;4.446;2023-11-21T09:24:01;10.90;99.90
41294;DHT22;27037;52.010;4.446;2023-11-21T09:26:26;10.90;99.90
41294;DHT22;27037;52.010;4.446;2023-11-21T09:28:52;10.90;99.90
41294;DHT22;27037;52.010;4.446;2023-11-21T09:31:18;10.90;99.90
41294;DHT22;27037;52.010;4.446;2023-11-21T09:33:48;10.90;99.90
41294;DHT22;27037;52.010;4.446;2023-11-21T09:36:14;10.90;99.90
41294;DHT22;27037;52.010;4.446;2023-11-21T09:38:42;10.90;99.90
41294;DHT22;27037;52.010;4.446;2023-11-21T09:41:21;10.90;99.90
41294;DHT22;27037;52.010;4.446;2023-11-21T09:43:47;10.90;99.90
41294;DHT22;27037;52.010;4.446;2023-11-21T09:46:20;10.90;99.90
41294;DHT22;27037;52.010;4.446;2023-11-21T09:48:50;11.00;99.90
41294;DHT22;27037;52.010;4.446;2023-11-21T09:51:19;11.00;99.90
41294;DHT22;27037;52.010;4.446;2023-11-21T09:53:48;11.00;99.90
41294;DHT22;27037;52.010;4.446;2023-11-21T09:56:15;11.00;99.90
41294;DHT22;27037;52.010;4.446;2023-11-21T09:58:44;11.00;99.90
41294;DHT22;27037;52.010;4.446;2023-11-21T10:01:11;11.00;99.90
41294;DHT22;27037;52.010;4.446;2023-11-21T10:03:39;11.00;99.90
41294;DHT22;27037;52.010;4.446;2023-11-21T10:06:06;11.00;99.90
41294;DHT22;27037;52.010;4.446;2023-11-21T10:08:32;11.00;99.90
41294;DHT22;27037;52.010;4.446;2023-11-21T10:10:58;11.00;99.90
41294;DHT22;27037;52.010;4.446;2023-11-21T10:13:26;11.00;99.90
41294;DHT22;27037;52.010;4.446;2023-11-21T10:15:56;11.00;99.90
41294;DHT22;27037;52.010;4.446;2023-11-21T10:18:23;11.00;99.90
41294;DHT22;27037;52.010;4.446;2023-11-21T10:20:50;11.00;99.90
41294;DHT22;27037;52.010;4.446;2023-11-21T10:23:20;11.00;99.90
41294;DHT22;27037;52.010;4.446;2023-11-21T10:25:47;11.00;99.90
41294;DHT22;27037;52.010;4.446;2023-11-21T10:28:16;11.00;99.90
41294;DHT22;27037;52.010;4.446;2023-11-21T10:30:41;11.00;99.90
41294;DHT22;27037;52.010;4.446;2023-11-21T10:33:07;11.00;99.90
41294;DHT22;27037;52.010;4.446;2023-11-21T10:35:47;10.90;99.90
41294;DHT22;27037;52.010;4.446;2023-11-21T10:38:17;11.00;99.90
41294;DHT22;27037;52.010;4.446;2023-11-21T10:40:44;10.90;99.90
41294;DHT22;27037;52.010;4.446;2023-11-21T10:43:10;10.90;99.90
41294;DHT22;27037;52.010;4.446;2023-11-21T10:45:37;10.90;99.90
41294;DHT22;27037;52.010;4.446;2023-11-21T10:48:06;10.90;99.90
41294;DHT22;27037;52.010;4.446;2023-11-21T10:50:36;10.90;99.90
41294;DHT22;27037;52.010;4.446;2023-11-21T10:53:03;10.90;99.90
41294;DHT22;27037;52.010;4.446;2023-11-21T10:55:30;11.00;99.90
41294;DHT22;27037;52.010;4.446;2023-11-21T10:57:58;10.90;99.90
41294;DHT22;27037;52.010;4.446;2023-11-21T11:00:26;10.90;99.90
41294;DHT22;27037;52.010;4.446;2023-11-21T11:02:53;10.90;99.90
41294;DHT22;27037;52.010;4.446;2023-11-21T11:05:21;10.90;99.90
41294;DHT22;27037;52.010;4.446;2023-11-21T11:07:50;11.00;99.90
41294;DHT22;27037;52.010;4.446;2023-11-21T11:10:21;11.00;99.90
41294;DHT22;27037;52.010;4.446;2023-11-21T11:12:48;11.00;99.90
41294;DHT22;27037;52.010;4.446;2023-11-21T11:15:16;11.00;99.90
41294;DHT22;27037;52.010;4.446;2023-11-21T11:17:42;11.10;99.90
41294;DHT22;27037;52.010;4.446;2023-11-21T11:20:13;11.10;99.90
41294;DHT22;27037;52.010;4.446;2023-11-21T11:28:08;11.10;99.90
41294;DHT22;27037;52.010;4.446;2023-11-21T11:31:02;11.10;99.90
41294;DHT22;27037;52.010;4.446;2023-11-21T11:36:06;11.10;99.90
41294;DHT22;27037;52.010;4.446;2023-11-21T11:38:34;11.10;99.90
41294;DHT22;27037;52.010;4.446;2023-11-21T11:41:06;11.10;99.90
41294;DHT22;27037;52.010;4.446;2023-11-21T11:43:32;11.10;99.90
41294;DHT22;27037;52.010;4.446;2023-11-21T11:46:03;11.10;99.90
41294;DHT22;27037;52.010;4.446;2023-11-21T11:48:29;11.10;99.90
41294;DHT22;27037;52.010;4.446;2023-11-21T11:51:04;11.10;99.90
41294;DHT22;27037;52.010;4.446;2023-11-21T11:53:38;11.10;99.90
41294;DHT22;27037;52.010;4.446;2023-11-21T11:56:25;11.10;99.90
41294;DHT22;27037;52.010;4.446;2023-11-21T11:58:56;11.20;99.90
41294;DHT22;27037;52.010;4.446;2023-11-21T12:01:24;11.20;99.90
41294;DHT22;27037;52.010;4.446;2023-11-21T12:06:42;11.20;99.90
41294;DHT22;27037;52.010;4.446;2023-11-21T12:09:19;11.20;99.90
41294;DHT22;27037;52.010;4.446;2023-11-21T12:11:47;11.30;99.90
41294;DHT22;27037;52.010;4.446;2023-11-21T12:14:16;11.30;99.90
41294;DHT22;27037;52.010;4.446;2023-11-21T12:16:42;11.30;99.90
41294;DHT22;27037;52.010;4.446;2023-11-21T12:19:12;11.30;99.90
41294;DHT22;27037;52.010;4.446;2023-11-21T12:21:38;11.30;99.90
41294;DHT22;27037;52.010;4.446;2023-11-21T12:24:06;11.30;99.90
41294;DHT22;27037;52.010;4.446;2023-11-21T12:26:34;11.30;99.90
41294;DHT22;27037;52.010;4.446;2023-11-21T12:29:01;11.30;99.90
41294;DHT22;27037;52.010;4.446;2023-11-21T12:31:30;11.30;99.90
41294;DHT22;27037;52.010;4.446;2023-11-21T12:33:56;11.30;99.90
41294;DHT22;27037;52.010;4.446;2023-11-21T12:36:23;11.30;99.90
41294;DHT22;27037;52.010;4.446;2023-11-21T12:38:49;11.30;99.90
41294;DHT22;27037;52.010;4.446;2023-11-21T12:41:16;11.30;99.90
41294;DHT22;27037;52.010;4.446;2023-11-21T12:43:42;11.30;99.90
41294;DHT22;27037;52.010;4.446;2023-11-21T12:46:10;11.30;99.90
41294;DHT22;27037;52.010;4.446;2023-11-21T12:48:42;11.30;99.90
41294;DHT22;27037;52.010;4.446;2023-11-21T12:51:10;11.30;99.90
41294;DHT22;27037;52.010;4.446;2023-11-21T12:53:38;11.30;99.90
41294;DHT22;27037;52.010;4.446;2023-11-21T12:56:07;11.30;99.90
41294;DHT22;27037;52.010;4.446;2023-11-21T12:58:35;11.30;99.90
41294;DHT22;27037;52.010;4.446;2023-11-21T13:01:01;11.30;99.90
41294;DHT22;27037;52.010;4.446;2023-11-21T13:03:30;11.20;99.90
41294;DHT22;27037;52.010;4.446;2023-11-21T13:05:56;11.30;99.90
41294;DHT22;27037;52.010;4.446;2023-11-21T13:08:25;11.20;99.90
41294;DHT22;27037;52.010;4.446;2023-11-21T13:10:56;11.20;99.90
41294;DHT22;27037;52.010;4.446;2023-11-21T13:13:22;11.20;99.90
41294;DHT22;27037;52.010;4.446;2023-11-21T13:15:54;11.20;99.90
41294;DHT22;27037;52.010;4.446;2023-11-21T13:18:27;11.20;99.90
41294;DHT22;27037;52.010;4.446;2023-11-21T13:20:53;11.20;99.90
41294;DHT22;27037;52.010;4.446;2023-11-21T13:23:20;11.20;99.90
41294;DHT22;27037;52.010;4.446;2023-11-21T13:25:46;11.20;99.90
41294;DHT22;27037;52.010;4.446;2023-11-21T13:28:13;11.30;99.90
41294;DHT22;27037;52.010;4.446;2023-11-21T13:30:41;11.20;99.90
41294;DHT22;27037;52.010;4.446;2023-11-21T13:33:08;11.20;99.90
41294;DHT22;27037;52.010;4.446;2023-11-21T13:35:39;11.20;99.90
41294;DHT22;27037;52.010;4.446;2023-11-21T13:38:13;11.20;99.90
41294;DHT22;27037;52.010;4.446;2023-11-21T13:40:39;11.20;99.90
41294;DHT22;27037;52.010;4.446;2023-11-21T13:43:10;11.20;99.90
41294;DHT22;27037;52.010;4.446;2023-11-21T13:45:43;11.20;99.90
41294;DHT22;27037;52.010;4.446;2023-11-21T13:48:09;11.20;99.90
41294;DHT22;27037;52.010;4.446;2023-11-21T13:50:39;11.20;99.90
41294;DHT22;27037;52.010;4.446;2023-11-21T13:53:10;11.20;99.90
41294;DHT22;27037;52.010;4.446;2023-11-21T13:55:53;11.20;99.90
41294;DHT22;27037;52.010;4.446;2023-11-21T13:58:25;11.20;99.90
41294;DHT22;27037;52.010;4.446;2023-11-21T14:01:10;11.20;99.90
41294;DHT22;27037;52.010;4.446;2023-11-21T14:03:54;11.20;99.90
41294;DHT22;27037;52.010;4.446;2023-11-21T14:06:28;11.10;99.90
41294;DHT22;27037;52.010;4.446;2023-11-21T14:09:00;11.10;99.90
41294;DHT22;27037;52.010;4.446;2023-11-21T14:11:32;11.10;99.90
41294;DHT22;27037;52.010;4.446;2023-11-21T14:13:57;11.10;99.90
41294;DHT22;27037;52.010;4.446;2023-11-21T14:16:24;11.10;99.90
41294;DHT22;27037;52.010;4.446;2023-11-21T14:18:50;11.10;99.90
41294;DHT22;27037;52.010;4.446;2023-11-21T14:21:26;11.10;99.90
41294;DHT22;27037;52.010;4.446;2023-11-21T14:23:52;11.10;99.90
41294;DHT22;27037;52.010;4.446;2023-11-21T14:26:20;11.00;99.90
41294;DHT22;27037;52.010;4.446;2023-11-21T14:28:46;11.00;99.90
41294;DHT22;27037;52.010;4.446;2023-11-21T14:31:14;11.00;99.90
41294;DHT22;27037;52.010;4.446;2023-11-21T14:33:43;11.00;99.90
41294;DHT22;27037;52.010;4.446;2023-11-21T14:36:09;11.00;99.90
41294;DHT22;27037;52.010;4.446;2023-11-21T14:38:36;11.00;99.90
41294;DHT22;27037;52.010;4.446;2023-11-21T14:41:02;11.00;99.90
41294;DHT22;27037;52.010;4.446;2023-11-21T14:43:29;11.00;99.90
41294;DHT22;27037;52.010;4.446;2023-11-21T14:45:59;10.90;99.90
41294;DHT22;27037;52.010;4.446;2023-11-21T14:48:25;10.90;99.90
41294;DHT22;27037;52.010;4.446;2023-11-21T14:51:11;10.80;99.90
41294;DHT22;27037;52.010;4.446;2023-11-21T14:53:59;10.80;99.90
41294;DHT22;27037;52.010;4.446;2023-11-21T14:56:32;10.70;99.90
41294;DHT22;27037;52.010;4.446;2023-11-21T14:59:00;10.60;99.90
41294;DHT22;27037;52.010;4.446;2023-11-21T15:01:32;10.60;99.90
41294;DHT22;27037;52.010;4.446;2023-11-21T15:04:19;10.50;99.90
41294;DHT22;27037;52.010;4.446;2023-11-21T15:07:02;10.50;99.90
41294;DHT22;27037;52.010;4.446;2023-11-21T15:09:29;10.50;99.90
41294;DHT22;27037;52.010;4.446;2023-11-21T15:11:58;10.50;99.90
41294;DHT22;27037;52.010;4.446;2023-11-21T15:14:32;10.40;99.90
41294;DHT22;27037;52.010;4.446;2023-11-21T15:16:59;10.30;99.90
41294;DHT22;27037;52.010;4.446;2023-11-21T15:19:26;10.20;99.90
41294;DHT22;27037;52.010;4.446;2023-11-21T15:21:53;10.20;99.90
41294;DHT22;27037;52.010;4.446;2023-11-21T15:24:19;10.20;99.90
41294;DHT22;27037;52.010;4.446;2023-11-21T15:26:45;10.20;99.90
41294;DHT22;27037;52.010;4.446;2023-11-21T15:29:11;10.20;99.90
41294;DHT22;27037;52.010;4.446;2023-11-21T15:31:38;10.20;99.90
41294;DHT22;27037;52.010;4.446;2023-11-21T15:34:05;10.20;99.90
41294;DHT22;27037;52.010;4.446;2023-11-21T15:36:31;10.20;99.90
41294;DHT22;27037;52.010;4.446;2023-11-21T15:38:57;10.20;99.90
41294;DHT22;27037;52.010;4.446;2023-11-21T15:41:22;10.10;99.90
41294;DHT22;27037;52.010;4.446;2023-11-21T15:43:48;10.20;99.90
41294;DHT22;27037;52.010;4.446;2023-11-21T15:46:15;10.10;99.90
41294;DHT22;27037;52.010;4.446;2023-11-21T15:48:41;10.10;99.90